createdAt,value
2023-04-13T00:02:06.424Z,6.80
2023-04-13T00:04:34.151Z,7.60
2023-04-13T00:07:03.548Z,9.38
2023-04-13T00:09:32.918Z,10.65
2023-04-13T00:11:59.842Z,5.85
2023-04-13T00:14:35.342Z,9.02
2023-04-13T00:17:03.108Z,11.50
2023-04-13T00:19:29.814Z,6.63
2023-04-13T00:21:57.447Z,7.03
2023-04-13T00:24:24.112Z,9.80
2023-04-13T00:26:51.574Z,6.65
2023-04-13T00:29:18.209Z,9.30
2023-04-13T00:31:44.665Z,6.68
2023-04-13T00:34:11.265Z,8.60
2023-04-13T00:36:37.856Z,6.80
2023-04-13T00:39:04.352Z,6.60
2023-04-13T00:41:30.813Z,8.68
2023-04-13T00:43:59.032Z,8.25
2023-04-13T00:46:25.918Z,11.43
2023-04-13T00:48:52.930Z,8.43
2023-04-13T00:51:20.003Z,8.88
2023-04-13T00:53:46.526Z,7.57
2023-04-13T00:56:13.297Z,9.63
2023-04-13T01:01:06.441Z,12.05
2023-04-13T01:06:08.650Z,11.52
2023-04-13T01:08:48.028Z,9.23
2023-04-13T01:11:39.506Z,11.40
2023-04-13T01:14:11.427Z,9.90
2023-04-13T01:16:49.391Z,12.20
2023-04-13T01:19:28.330Z,9.18
2023-04-13T01:21:55.668Z,12.05
2023-04-13T01:24:41.906Z,10.30
2023-04-13T01:27:17.833Z,13.23
2023-04-13T01:29:46.680Z,13.80
2023-04-13T01:32:16.831Z,15.52
2023-04-13T01:34:43.444Z,14.40
2023-04-13T01:51:32.176Z,15.73
2023-04-13T01:54:12.951Z,17.40
2023-04-13T01:56:40.625Z,15.48
2023-04-13T01:59:16.810Z,19.50
2023-04-13T02:01:43.721Z,14.20
2023-04-13T02:04:10.436Z,18.45
2023-04-13T02:06:37.282Z,16.48
2023-04-13T02:11:35.304Z,17.45
2023-04-13T02:14:02.353Z,14.38
2023-04-13T02:16:31.482Z,18.88
2023-04-13T02:18:58.437Z,15.10
2023-04-13T02:21:25.824Z,14.98
2023-04-13T02:23:52.623Z,15.48
2023-04-13T02:28:46.481Z,12.07
2023-04-13T02:33:44.881Z,13.23
2023-04-13T02:36:15.233Z,12.82
2023-04-13T02:38:42.278Z,11.77
2023-04-13T02:41:09.248Z,14.80
2023-04-13T02:43:35.760Z,13.07
2023-04-13T02:46:02.300Z,14.20
2023-04-13T02:48:29.118Z,13.73
2023-04-13T02:50:55.660Z,11.57
2023-04-13T02:53:22.262Z,12.57
2023-04-13T02:55:50.470Z,16.88
2023-04-13T02:58:17.274Z,18.65
2023-04-13T03:00:44.636Z,19.27
2023-04-13T03:03:11.528Z,12.82
2023-04-13T03:05:38.906Z,11.52
2023-04-13T03:08:05.766Z,15.55
2023-04-13T03:10:32.329Z,13.25
2023-04-13T03:12:59.011Z,16.50
2023-04-13T03:15:25.455Z,14.25
2023-04-13T03:17:52.979Z,12.07
2023-04-13T03:20:20.897Z,13.70
2023-04-13T03:22:47.420Z,14.73
2023-04-13T03:25:13.844Z,14.52
2023-04-13T03:27:40.601Z,16.58
2023-04-13T03:32:34.247Z,12.98
2023-04-13T03:35:00.703Z,12.85
2023-04-13T03:37:30.214Z,20.77
2023-04-13T03:39:58.047Z,15.15
2023-04-13T03:42:24.492Z,19.05
2023-04-13T03:44:51.229Z,14.73
2023-04-13T03:49:44.063Z,12.02
2023-04-13T03:52:10.732Z,15.27
2023-04-13T03:54:38.116Z,13.02
2023-04-13T03:57:05.065Z,11.00
2023-04-13T03:59:31.556Z,13.82
2023-04-13T04:01:58.558Z,16.75
2023-04-13T04:04:25.472Z,10.82
2023-04-13T04:06:52.169Z,12.70
2023-04-13T04:09:18.661Z,14.82
2023-04-13T04:11:45.643Z,14.35
2023-04-13T04:14:12.079Z,12.15
2023-04-13T04:16:38.578Z,12.43
2023-04-13T04:19:05.107Z,11.13
2023-04-13T04:21:34.487Z,13.73
2023-04-13T04:24:06.197Z,12.50
2023-04-13T04:26:32.732Z,11.38
2023-04-13T04:29:02.830Z,14.07
2023-04-13T04:31:43.864Z,8.23
2023-04-13T04:34:11.662Z,10.40
2023-04-13T04:36:41.668Z,10.23
2023-04-13T04:39:09.986Z,10.73
2023-04-13T04:41:46.987Z,12.32
2023-04-13T04:44:16.729Z,13.43
2023-04-13T04:46:43.740Z,11.65
2023-04-13T04:49:11.122Z,11.48
2023-04-13T04:51:37.747Z,14.05
2023-04-13T04:54:05.304Z,10.68
2023-04-13T04:56:32.173Z,10.57
2023-04-13T04:58:58.863Z,15.38
2023-04-13T05:03:53.642Z,10.88
2023-04-13T05:06:20.360Z,10.00
2023-04-13T05:11:13.262Z,11.23
2023-04-13T05:13:39.690Z,11.48
2023-04-13T05:16:06.672Z,13.32
2023-04-13T05:18:46.602Z,11.50
2023-04-13T05:21:14.544Z,14.30
2023-04-13T05:23:42.184Z,14.40
2023-04-13T05:26:12.678Z,15.25
2023-04-13T05:28:39.769Z,14.23
2023-04-13T05:31:08.919Z,11.65
2023-04-13T05:33:35.935Z,16.00
2023-04-13T05:36:06.205Z,12.13
2023-04-13T05:38:33.119Z,14.10
2023-04-13T05:40:59.847Z,13.40
2023-04-13T05:45:53.249Z,13.27
2023-04-13T05:48:19.688Z,16.33
2023-04-13T05:50:46.371Z,14.05
2023-04-13T05:55:40.611Z,15.60
2023-04-13T05:58:08.803Z,20.90
2023-04-13T06:00:35.288Z,8.88
2023-04-13T06:03:02.521Z,7.07
2023-04-13T06:05:31.985Z,15.98
2023-04-13T06:07:59.848Z,11.73
2023-04-13T06:10:26.815Z,22.75
2023-04-13T06:12:56.400Z,14.43
2023-04-13T06:15:22.993Z,13.05
2023-04-13T06:17:58.222Z,15.98
2023-04-13T06:20:24.689Z,15.13
2023-04-13T06:22:53.492Z,14.48
2023-04-13T06:25:19.992Z,12.65
2023-04-13T06:27:47.388Z,14.75
2023-04-13T06:30:14.127Z,10.90
2023-04-13T06:35:07.364Z,11.35
2023-04-13T06:37:35.827Z,18.13
2023-04-13T06:40:15.828Z,10.63
2023-04-13T06:42:42.725Z,13.18
2023-04-13T06:45:10.199Z,9.88
2023-04-13T06:47:37.594Z,11.00
2023-04-13T06:50:06.904Z,12.35
2023-04-13T06:52:34.747Z,7.95
2023-04-13T06:55:02.048Z,14.30
2023-04-13T06:57:29.967Z,10.90
2023-04-13T06:59:56.687Z,9.43
2023-04-13T07:04:50.016Z,8.60
2023-04-13T07:07:16.821Z,7.28
2023-04-13T07:12:10.184Z,9.68
2023-04-13T07:17:04.852Z,10.60
2023-04-13T07:19:32.693Z,7.32
2023-04-13T07:22:00.617Z,10.15
2023-04-13T07:24:30.158Z,10.80
2023-04-13T07:27:00.291Z,7.25
2023-04-13T07:29:26.949Z,5.43
2023-04-13T07:31:59.556Z,9.70
2023-04-13T07:34:26.632Z,6.60
2023-04-13T07:36:58.773Z,7.25
2023-04-13T07:39:25.433Z,8.38
2023-04-13T07:41:52.224Z,7.00
2023-04-13T07:46:45.980Z,7.35
2023-04-13T07:49:12.806Z,8.15
2023-04-13T07:54:06.109Z,10.68
2023-04-13T07:58:59.553Z,7.60
2023-04-13T08:01:26.495Z,5.88
2023-04-13T08:06:21.524Z,4.90
2023-04-13T08:11:15.651Z,5.22
2023-04-13T08:13:42.405Z,5.90
2023-04-13T08:18:37.830Z,4.75
2023-04-13T08:21:10.899Z,3.17
2023-04-13T08:23:40.126Z,4.22
2023-04-13T08:26:06.687Z,3.50
2023-04-13T08:28:33.427Z,5.50
2023-04-13T08:33:29.502Z,7.18
2023-04-13T08:35:56.416Z,5.38
2023-04-13T08:38:22.883Z,3.30
2023-04-13T08:40:50.435Z,7.00
2023-04-13T08:43:19.569Z,2.67
2023-04-13T08:45:46.275Z,10.80
2023-04-13T08:48:14.281Z,4.50
2023-04-13T08:50:43.373Z,6.10
2023-04-13T08:53:12.807Z,3.13
2023-04-13T08:55:43.699Z,4.18
2023-04-13T08:58:12.387Z,5.68
2023-04-13T09:00:41.739Z,5.75
2023-04-13T09:03:14.103Z,3.95
2023-04-13T09:05:42.118Z,2.65
2023-04-13T09:08:13.686Z,3.75
2023-04-13T09:10:50.068Z,2.88
2023-04-13T09:13:16.735Z,2.40
2023-04-13T09:15:51.172Z,3.50
2023-04-13T09:18:22.921Z,10.48
2023-04-13T09:21:04.347Z,3.67
2023-04-13T09:23:31.657Z,6.22
2023-04-13T09:26:08.923Z,2.88
2023-04-13T09:28:51.267Z,2.67
2023-04-13T09:31:18.978Z,6.70
2023-04-13T09:33:48.844Z,4.00
2023-04-13T09:36:24.337Z,4.53
2023-04-13T09:38:52.798Z,3.47
2023-04-13T09:41:51.020Z,1.55
2023-04-13T09:44:24.617Z,4.93
2023-04-13T09:46:59.357Z,6.70
2023-04-13T09:49:26.693Z,7.32
2023-04-13T09:51:56.349Z,2.75
2023-04-13T09:54:22.952Z,4.47
2023-04-13T09:56:58.826Z,3.17
2023-04-13T09:59:27.434Z,2.35
2023-04-13T10:02:02.226Z,9.07
2023-04-13T10:04:30.904Z,3.03
2023-04-13T10:06:57.490Z,3.75
2023-04-13T10:09:27.336Z,5.75
2023-04-13T10:11:56.032Z,6.32
2023-04-13T10:14:31.664Z,4.30
2023-04-13T10:17:05.884Z,5.70
2023-04-13T10:19:41.319Z,6.65
2023-04-13T10:22:11.557Z,6.88
2023-04-13T10:24:39.944Z,9.23
2023-04-13T10:27:18.314Z,4.45
2023-04-13T10:29:45.375Z,1.30
2023-04-13T10:32:22.553Z,3.38
2023-04-13T10:34:49.623Z,2.80
2023-04-13T10:37:21.558Z,2.30
2023-04-13T10:39:48.359Z,1.92
2023-04-13T10:44:48.809Z,1.90
2023-04-13T10:47:17.180Z,3.33
2023-04-13T10:49:46.805Z,7.90
2023-04-13T10:52:13.594Z,2.05
2023-04-13T10:57:09.722Z,4.32
2023-04-13T11:02:16.588Z,2.72
2023-04-13T11:04:46.385Z,3.33
2023-04-13T11:07:15.255Z,3.42
2023-04-13T11:09:45.922Z,2.67
2023-04-13T11:12:13.147Z,4.47
2023-04-13T11:14:39.558Z,2.33
2023-04-13T11:17:07.735Z,1.00
2023-04-13T11:19:49.899Z,2.10
2023-04-13T11:22:18.636Z,2.97
2023-04-13T11:24:49.084Z,3.25
2023-04-13T11:27:23.298Z,2.50
2023-04-13T11:30:00.834Z,4.38
2023-04-13T11:32:30.672Z,3.45
2023-04-13T11:35:11.043Z,2.92
2023-04-13T11:37:39.630Z,6.32
2023-04-13T11:40:14.071Z,2.67
2023-04-13T11:42:46.280Z,6.13
2023-04-13T11:45:17.025Z,3.25
2023-04-13T11:47:46.296Z,2.58
2023-04-13T11:50:15.743Z,6.15
2023-04-13T11:52:43.684Z,1.90
2023-04-13T11:55:22.284Z,5.82
2023-04-13T11:57:50.830Z,2.55
2023-04-13T12:00:24.476Z,7.07
2023-04-13T12:03:02.980Z,3.78
2023-04-13T12:05:32.784Z,4.03
2023-04-13T12:08:00.844Z,1.73
2023-04-13T12:10:42.640Z,2.22
2023-04-13T12:16:04.987Z,2.95
2023-04-13T12:18:43.653Z,4.47
2023-04-13T12:21:20.481Z,4.13
2023-04-13T12:23:59.604Z,1.98
2023-04-13T12:29:08.579Z,1.05
2023-04-13T12:31:39.714Z,5.50
2023-04-13T12:34:08.166Z,3.10
2023-04-13T12:36:36.497Z,4.93
2023-04-13T12:39:04.452Z,7.78
2023-04-13T12:41:31.931Z,6.55
2023-04-13T12:43:58.386Z,1.95
2023-04-13T12:46:25.250Z,4.50
2023-04-13T12:48:52.947Z,10.43
2023-04-13T12:51:19.490Z,11.02
2023-04-13T12:53:46.131Z,0.73
2023-04-13T12:56:12.866Z,4.03
2023-04-13T13:01:06.917Z,1.33
2023-04-13T13:03:34.042Z,7.07
2023-04-13T13:06:00.878Z,3.35
2023-04-13T13:11:01.003Z,2.15
2023-04-13T13:13:27.437Z,5.72
2023-04-13T13:15:53.942Z,3.28
2023-04-13T13:18:20.442Z,1.35
2023-04-13T13:20:49.307Z,2.50
2023-04-13T13:23:16.043Z,6.07
2023-04-13T13:25:54.214Z,3.50
2023-04-13T13:28:31.086Z,2.10
2023-04-13T13:30:57.521Z,4.28
2023-04-13T13:33:24.257Z,3.13
2023-04-13T13:38:17.162Z,9.05
2023-04-13T13:40:43.661Z,4.20
2023-04-13T13:43:10.961Z,4.88
2023-04-13T13:45:56.266Z,2.58
2023-04-13T13:48:33.988Z,8.25
2023-04-13T13:51:01.044Z,2.42
2023-04-13T13:53:30.280Z,1.10
2023-04-13T13:55:56.805Z,3.47
2023-04-13T13:58:23.319Z,3.55
2023-04-13T14:00:50.761Z,2.40
2023-04-13T14:03:38.667Z,3.13
2023-04-13T14:08:31.648Z,2.03
2023-04-13T14:10:58.905Z,1.95
2023-04-13T14:13:25.444Z,3.53
2023-04-13T14:15:52.009Z,3.70
2023-04-13T14:18:23.709Z,2.65
2023-04-13T14:20:51.189Z,12.52
2023-04-13T14:23:18.452Z,4.40
2023-04-13T14:25:44.998Z,4.20
2023-04-13T14:28:11.862Z,1.73
2023-04-13T14:30:41.481Z,4.50
2023-04-13T14:33:10.475Z,2.92
2023-04-13T14:35:38.806Z,3.35
2023-04-13T14:45:41.171Z,1.85
2023-04-13T14:48:08.043Z,3.83
2023-04-13T14:50:38.301Z,6.80
2023-04-13T14:53:07.475Z,2.97
2023-04-13T14:55:34.313Z,1.25
2023-04-13T15:00:40.294Z,4.13
2023-04-13T15:03:10.904Z,4.28
2023-04-13T15:06:01.272Z,7.60
2023-04-13T15:08:30.002Z,5.30
2023-04-13T15:13:23.000Z,2.50
2023-04-13T15:15:52.091Z,2.63
2023-04-13T15:18:18.720Z,2.38
2023-04-13T15:20:45.286Z,6.45
2023-04-13T15:23:20.030Z,3.65
2023-04-13T15:25:47.099Z,7.93
2023-04-13T15:30:42.338Z,3.80
2023-04-13T15:33:09.011Z,2.92
2023-04-13T15:35:35.955Z,4.70
2023-04-13T15:38:02.608Z,2.13
2023-04-13T15:40:40.650Z,6.10
2023-04-13T15:43:10.644Z,2.15
2023-04-13T15:45:37.148Z,2.13
2023-04-13T15:48:03.886Z,9.45
2023-04-13T15:52:57.150Z,5.78
2023-04-13T15:57:53.642Z,2.38
2023-04-13T16:00:20.307Z,1.85
2023-04-13T16:02:47.155Z,4.82
2023-04-13T16:05:13.811Z,10.38
2023-04-13T16:07:40.256Z,4.90
2023-04-13T16:10:07.649Z,6.93
2023-04-13T16:12:34.805Z,4.20
2023-04-13T16:15:02.219Z,2.70
2023-04-13T16:17:31.747Z,3.58
2023-04-13T16:20:17.698Z,7.32
2023-04-13T16:22:48.982Z,2.42
2023-04-13T16:25:16.662Z,2.88
2023-04-13T16:27:43.604Z,1.95
2023-04-13T16:30:13.012Z,3.15
2023-04-13T16:32:46.724Z,6.18
2023-04-13T16:35:13.699Z,3.60
2023-04-13T16:40:11.028Z,2.83
2023-04-13T16:42:38.997Z,2.28
2023-04-13T16:45:07.469Z,2.72
2023-04-13T16:47:34.149Z,4.50
2023-04-13T16:50:00.744Z,3.15
2023-04-13T16:52:27.310Z,1.88
2023-04-13T16:54:53.836Z,7.38
2023-04-13T16:57:20.667Z,2.08
2023-04-13T17:02:30.232Z,6.68
2023-04-13T17:04:57.840Z,4.10
2023-04-13T17:07:44.602Z,2.15
2023-04-13T17:30:18.314Z,1.73
2023-04-13T17:32:45.584Z,2.13
2023-04-13T17:35:12.206Z,1.52
2023-04-13T17:37:41.453Z,4.22
2023-04-13T17:40:08.693Z,2.53
2023-04-13T17:42:35.528Z,4.45
2023-04-13T17:47:31.848Z,4.03
2023-04-13T17:49:58.622Z,4.45
2023-04-13T17:52:25.051Z,2.90
2023-04-13T17:54:54.182Z,3.97
2023-04-13T17:57:20.861Z,5.07
2023-04-13T17:59:49.715Z,1.05
2023-04-13T18:02:18.512Z,5.15
2023-04-13T18:04:45.482Z,7.70
2023-04-13T18:07:12.094Z,3.42
2023-04-13T18:09:38.552Z,4.93
2023-04-13T18:12:05.089Z,2.53
2023-04-13T18:14:31.661Z,4.63
2023-04-13T18:16:58.481Z,6.45
2023-04-13T18:21:58.022Z,8.38
2023-04-13T18:24:47.559Z,3.78
2023-04-13T18:38:46.658Z,4.53
2023-04-13T18:41:23.856Z,6.63
2023-04-13T18:43:50.503Z,6.85
2023-04-13T18:48:43.611Z,2.67
2023-04-13T18:51:12.303Z,3.42
2023-04-13T18:53:39.238Z,2.25
2023-04-13T18:56:05.871Z,4.47
2023-04-13T18:58:32.349Z,5.63
2023-04-13T19:00:58.910Z,10.57
2023-04-13T19:03:25.635Z,4.93
2023-04-13T19:08:20.878Z,5.88
2023-04-13T19:10:47.386Z,3.70
2023-04-13T19:13:15.602Z,4.78
2023-04-13T19:15:42.154Z,4.10
2023-04-13T19:18:11.341Z,3.05
2023-04-13T19:20:38.218Z,2.33
2023-04-13T19:25:31.380Z,3.08
2023-04-13T19:30:37.988Z,12.07
2023-04-13T19:33:04.858Z,3.83
2023-04-13T19:35:32.994Z,2.58
2023-04-13T19:38:01.992Z,3.33
2023-04-13T19:40:28.569Z,4.80
2023-04-13T19:42:59.633Z,3.42
2023-04-13T19:45:26.268Z,5.45
2023-04-13T19:50:33.641Z,4.35
2023-04-13T19:53:00.133Z,4.53
2023-04-13T19:55:29.877Z,7.93
2023-04-13T19:57:58.952Z,3.17
2023-04-13T20:00:26.967Z,3.33
2023-04-13T20:02:58.672Z,3.90
2023-04-13T20:05:25.392Z,6.53
2023-04-13T20:08:06.198Z,2.72
2023-04-13T20:14:19.775Z,7.10
2023-04-13T20:16:46.385Z,5.55
2023-04-13T20:19:13.096Z,5.93
2023-04-13T20:25:19.387Z,7.43
2023-04-13T20:27:46.030Z,4.35
2023-04-13T20:30:15.390Z,3.25
2023-04-13T20:32:42.118Z,5.10
2023-04-13T20:37:36.142Z,6.70
2023-04-13T20:40:07.054Z,7.57
2023-04-13T20:42:36.900Z,9.43
2023-04-13T20:45:20.935Z,9.25
2023-04-13T20:47:59.566Z,7.45
2023-04-13T20:50:27.582Z,8.45
2023-04-13T20:52:56.713Z,11.75
2023-04-13T20:55:25.727Z,10.95
2023-04-13T20:57:55.262Z,12.13
2023-04-13T21:00:25.027Z,11.85
2023-04-13T21:02:54.912Z,15.25
2023-04-13T21:05:22.477Z,18.00
2023-04-13T21:07:58.319Z,22.30
2023-04-13T21:10:25.010Z,19.70
2023-04-13T21:15:19.691Z,18.58
2023-04-13T21:17:46.185Z,17.60
2023-04-13T21:20:12.786Z,17.55
2023-04-13T21:22:41.577Z,20.40
2023-04-13T21:25:08.287Z,13.90
2023-04-13T21:30:01.310Z,23.20
2023-04-13T21:32:27.874Z,14.85
2023-04-13T21:34:55.146Z,20.63
2023-04-13T21:37:21.862Z,14.30
2023-04-13T21:39:48.327Z,19.65
2023-04-13T21:42:16.898Z,14.85
2023-04-13T21:44:43.327Z,17.58
2023-04-13T21:47:09.756Z,14.20
2023-04-13T21:49:36.395Z,17.95
2023-04-13T21:52:03.080Z,17.17
2023-04-13T21:56:55.982Z,19.77
2023-04-13T21:59:27.264Z,15.75
2023-04-13T22:01:54.669Z,14.85
2023-04-13T22:04:21.454Z,16.15
2023-04-13T22:09:14.539Z,12.32
2023-04-13T22:11:41.389Z,12.93
2023-04-13T22:14:07.881Z,12.63
2023-04-13T22:16:34.464Z,17.60
2023-04-13T22:19:01.167Z,14.00
2023-04-13T22:21:28.032Z,14.52
2023-04-13T22:26:21.206Z,16.50
2023-04-13T22:31:14.130Z,14.43
2023-04-13T22:33:40.961Z,13.30
2023-04-13T22:36:22.810Z,13.20
2023-04-13T22:38:49.826Z,14.95
2023-04-13T22:41:16.369Z,13.65
2023-04-13T22:43:42.927Z,13.85
2023-04-13T22:46:09.450Z,14.65
2023-04-13T22:48:36.017Z,19.25
2023-04-13T22:51:03.654Z,13.80
2023-04-13T22:53:33.254Z,16.92
2023-04-13T22:56:00.764Z,13.98
2023-04-13T22:58:27.927Z,15.63
2023-04-13T23:00:54.456Z,20.45
2023-04-13T23:03:21.617Z,20.58
2023-04-13T23:05:48.272Z,18.42
2023-04-13T23:08:14.707Z,11.18
2023-04-13T23:10:41.666Z,13.85
2023-04-13T23:13:08.172Z,19.55
2023-04-13T23:15:34.707Z,11.25
2023-04-13T23:18:02.720Z,13.82
2023-04-13T23:20:29.524Z,14.25
2023-04-13T23:22:55.963Z,17.15
2023-04-13T23:25:22.411Z,15.73
2023-04-13T23:27:48.884Z,16.88
2023-04-13T23:30:16.160Z,19.88
2023-04-13T23:32:42.699Z,15.30
2023-04-13T23:35:09.345Z,17.38
2023-04-13T23:37:35.973Z,17.13
2023-04-13T23:40:02.478Z,19.30
2023-04-13T23:42:32.020Z,10.15
2023-04-13T23:44:58.874Z,14.23
2023-04-13T23:47:25.781Z,18.75
2023-04-13T23:49:54.183Z,11.32
2023-04-13T23:52:20.826Z,14.43
2023-04-13T23:54:47.311Z,11.40
2023-04-13T23:57:13.755Z,15.13
2023-04-13T23:59:40.431Z,11.65
